createdAt,value
2022-10-16T00:00:22.641Z,70.36
2022-10-16T00:01:22.792Z,70.56
2022-10-16T00:02:23.063Z,70.46
2022-10-16T00:03:26.634Z,70.06
2022-10-16T00:04:24.331Z,70.26
2022-10-16T00:05:23.510Z,70.06
2022-10-16T00:06:23.708Z,70.03
2022-10-16T00:07:24.136Z,70.43
2022-10-16T00:08:24.022Z,70.12
2022-10-16T00:09:24.182Z,70.03
2022-10-16T00:10:24.371Z,69.92
2022-10-16T00:11:24.530Z,69.82
2022-10-16T00:12:24.999Z,69.92
2022-10-16T00:13:24.870Z,70.03
2022-10-16T00:14:25.031Z,70.03
2022-10-16T00:15:25.191Z,69.92
2022-10-16T00:16:25.380Z,69.92
2022-10-16T00:17:25.559Z,69.92
2022-10-16T00:18:25.744Z,70.23
2022-10-16T00:19:25.891Z,69.92
2022-10-16T00:20:26.100Z,70.12
2022-10-16T00:21:26.240Z,70.12
2022-10-16T00:22:26.813Z,70.32
2022-10-16T00:23:26.622Z,70.43
2022-10-16T00:24:26.781Z,70.32
2022-10-16T00:25:26.973Z,70.32
2022-10-16T00:26:27.169Z,70.43
2022-10-16T00:27:27.343Z,70.23
2022-10-16T00:28:27.551Z,70.29
2022-10-16T00:29:27.692Z,70.43
2022-10-16T00:30:27.857Z,70.29
2022-10-16T00:31:28.025Z,70.39
2022-10-16T00:32:28.502Z,70.19
2022-10-16T00:33:28.371Z,70.29
2022-10-16T00:34:28.552Z,70.09
2022-10-16T00:35:28.741Z,70.19
2022-10-16T00:36:28.922Z,70.19
2022-10-16T00:37:29.082Z,70.09
2022-10-16T00:38:29.272Z,70.09
2022-10-16T00:39:29.461Z,69.99
2022-10-16T00:40:29.621Z,69.99
2022-10-16T00:41:29.784Z,70.09
2022-10-16T00:42:29.947Z,69.89
2022-10-16T00:43:30.103Z,69.89
2022-10-16T00:44:30.294Z,69.79
2022-10-16T00:45:30.454Z,69.89
2022-10-16T00:46:30.634Z,69.89
2022-10-16T00:47:30.793Z,69.89
2022-10-16T00:48:30.953Z,69.99
2022-10-16T00:49:31.113Z,70.19
2022-10-16T00:50:31.274Z,70.09
2022-10-16T00:51:31.474Z,70.09
2022-10-16T00:52:31.634Z,70.09
2022-10-16T00:53:31.791Z,70.19
2022-10-16T00:54:31.983Z,70.09
2022-10-16T00:55:32.146Z,70.09
2022-10-16T00:56:32.324Z,70.19
2022-10-16T00:57:32.474Z,70.09
2022-10-16T00:58:32.673Z,69.99
2022-10-16T00:59:32.825Z,69.89
2022-10-16T01:00:33.021Z,69.79
2022-10-16T01:01:33.270Z,69.89
2022-10-16T01:02:33.394Z,69.99
2022-10-16T01:03:33.554Z,69.99
2022-10-16T01:04:33.713Z,70.09
2022-10-16T01:05:33.864Z,70.09
2022-10-16T01:06:34.075Z,70.03
2022-10-16T01:07:34.235Z,69.99
2022-10-16T01:08:34.394Z,70.23
2022-10-16T01:09:34.556Z,70.12
2022-10-16T01:10:34.715Z,70.23
2022-10-16T01:11:34.915Z,70.12
2022-10-16T01:12:38.606Z,70.03
2022-10-16T01:13:35.244Z,70.12
2022-10-16T01:14:35.434Z,70.32
2022-10-16T01:15:35.634Z,70.12
2022-10-16T01:16:35.809Z,70.23
2022-10-16T01:17:35.945Z,70.12
2022-10-16T01:18:36.136Z,70.23
2022-10-16T01:19:36.292Z,70.23
2022-10-16T01:20:36.476Z,70.53
2022-10-16T01:21:36.657Z,70.53
2022-10-16T01:22:36.816Z,70.66
2022-10-16T01:23:36.976Z,70.46
2022-10-16T01:24:37.176Z,71.06
2022-10-16T01:25:37.317Z,70.76
2022-10-16T01:26:37.515Z,70.86
2022-10-16T01:27:37.676Z,70.76
2022-10-16T01:28:37.927Z,70.96
2022-10-16T01:29:38.006Z,71.06
2022-10-16T01:30:38.203Z,70.76
2022-10-16T01:31:38.387Z,70.76
2022-10-16T01:32:38.526Z,71.06
2022-10-16T01:33:38.677Z,71.06
2022-10-16T01:34:38.877Z,71.30
2022-10-16T01:35:39.026Z,71.50
2022-10-16T01:36:39.247Z,71.30
2022-10-16T01:37:39.397Z,71.80
2022-10-16T01:38:39.597Z,71.40
2022-10-16T01:39:39.747Z,71.30
2022-10-16T01:40:39.907Z,71.40
2022-10-16T01:41:40.086Z,71.60
2022-10-16T01:42:40.246Z,71.60
2022-10-16T01:43:40.428Z,71.80
2022-10-16T01:44:40.588Z,71.80
2022-10-16T01:45:40.747Z,71.90
2022-10-16T01:46:40.955Z,71.90
2022-10-16T01:47:41.107Z,71.80
2022-10-16T01:48:41.311Z,71.56
2022-10-16T01:49:41.467Z,71.77
2022-10-16T01:50:41.631Z,71.77
2022-10-16T01:51:41.797Z,71.87
2022-10-16T01:52:41.958Z,71.97
2022-10-16T01:53:42.122Z,71.97
2022-10-16T01:54:42.308Z,71.77
2022-10-16T01:55:42.467Z,71.77
2022-10-16T01:56:42.653Z,71.77
2022-10-16T01:57:42.810Z,71.77
2022-10-16T01:58:42.989Z,71.77
2022-10-16T01:59:43.150Z,71.87
2022-10-16T02:00:43.391Z,71.67
2022-10-16T02:01:43.536Z,71.56
2022-10-16T02:02:43.697Z,71.67
2022-10-16T02:03:43.878Z,71.56
2022-10-16T02:04:44.070Z,71.67
2022-10-16T02:05:44.229Z,71.56
2022-10-16T02:06:44.409Z,71.67
2022-10-16T02:07:44.559Z,71.47
2022-10-16T02:08:44.749Z,71.36
2022-10-16T02:09:44.898Z,71.43
2022-10-16T02:10:45.090Z,71.47
2022-10-16T02:11:45.268Z,71.33
2022-10-16T02:12:45.430Z,71.33
2022-10-16T02:13:45.586Z,71.13
2022-10-16T02:14:45.746Z,70.93
2022-10-16T02:15:45.929Z,70.83
2022-10-16T02:16:46.089Z,70.83
2022-10-16T02:17:46.239Z,71.03
2022-10-16T02:18:46.421Z,71.03
2022-10-16T02:19:46.579Z,70.93
2022-10-16T02:20:46.789Z,70.93
2022-10-16T02:21:46.941Z,70.93
2022-10-16T02:22:47.103Z,70.93
2022-10-16T02:23:47.256Z,70.83
2022-10-16T02:24:47.449Z,70.83
2022-10-16T02:25:47.618Z,70.73
2022-10-16T02:26:47.779Z,70.83
2022-10-16T02:27:47.959Z,70.83
2022-10-16T02:28:48.184Z,70.73
2022-10-16T02:29:48.330Z,70.93
2022-10-16T02:30:48.540Z,71.03
2022-10-16T02:31:48.699Z,70.93
2022-10-16T02:32:48.889Z,70.93
2022-10-16T02:33:49.078Z,70.83
2022-10-16T02:34:49.240Z,70.83
2022-10-16T02:35:49.420Z,70.73
2022-10-16T02:36:49.580Z,70.63
2022-10-16T02:37:49.739Z,70.63
2022-10-16T02:38:49.910Z,70.63
2022-10-16T02:39:50.059Z,70.73
2022-10-16T02:40:50.271Z,70.53
2022-10-16T02:41:50.430Z,70.53
2022-10-16T02:42:50.589Z,70.63
2022-10-16T02:43:50.740Z,70.43
2022-10-16T02:44:50.930Z,70.63
2022-10-16T02:45:51.100Z,70.23
2022-10-16T02:46:51.268Z,70.32
2022-10-16T02:47:51.420Z,70.43
2022-10-16T02:48:51.616Z,70.63
2022-10-16T02:49:51.769Z,70.83
2022-10-16T02:50:51.971Z,70.53
2022-10-16T02:51:52.131Z,70.53
2022-10-16T02:52:52.292Z,70.73
2022-10-16T02:53:52.482Z,70.76
2022-10-16T02:54:52.641Z,70.56
2022-10-16T02:55:52.818Z,70.46
2022-10-16T02:56:52.979Z,70.36
2022-10-16T02:57:53.145Z,70.56
2022-10-16T02:58:53.304Z,70.66
2022-10-16T02:59:53.470Z,70.66
2022-10-16T03:00:53.688Z,70.76
2022-10-16T03:01:53.820Z,70.66
2022-10-16T03:02:53.982Z,70.56
2022-10-16T03:03:54.173Z,70.76
2022-10-16T03:04:54.340Z,70.56
2022-10-16T03:05:54.500Z,70.56
2022-10-16T03:06:54.663Z,70.66
2022-10-16T03:07:54.812Z,70.96
2022-10-16T03:08:55.011Z,71.06
2022-10-16T03:09:55.190Z,70.96
2022-10-16T03:10:55.351Z,71.30
2022-10-16T03:11:55.511Z,71.09
2022-10-16T03:12:55.671Z,70.89
2022-10-16T03:13:55.832Z,71.40
2022-10-16T03:14:56.002Z,71.09
2022-10-16T03:15:56.162Z,71.30
2022-10-16T03:16:56.372Z,70.89
2022-10-16T03:17:56.530Z,71.20
2022-10-16T03:18:56.691Z,71.30
2022-10-16T03:19:56.861Z,71.30
2022-10-16T03:20:57.022Z,71.60
2022-10-16T03:21:57.182Z,71.30
2022-10-16T03:22:57.342Z,71.40
2022-10-16T03:23:57.502Z,71.20
2022-10-16T03:24:57.672Z,71.40
2022-10-16T03:25:57.832Z,71.40
2022-10-16T03:26:58.023Z,71.53
2022-10-16T03:27:58.182Z,71.94
2022-10-16T03:28:58.407Z,71.63
2022-10-16T03:29:58.532Z,72.14
2022-10-16T03:30:58.696Z,71.53
2022-10-16T03:31:58.852Z,71.63
2022-10-16T03:32:59.013Z,71.63
2022-10-16T03:33:59.177Z,71.94
2022-10-16T03:34:59.352Z,71.73
2022-10-16T03:35:59.514Z,71.94
2022-10-16T03:36:59.672Z,72.03
2022-10-16T03:37:59.834Z,72.54
2022-10-16T03:39:00.023Z,72.34
2022-10-16T03:40:00.193Z,72.14
2022-10-16T03:41:00.352Z,72.24
2022-10-16T03:42:00.504Z,72.14
2022-10-16T03:43:00.703Z,72.14
2022-10-16T03:44:00.875Z,72.54
2022-10-16T03:45:01.041Z,72.44
2022-10-16T03:46:01.193Z,72.44
2022-10-16T03:47:01.352Z,72.03
2022-10-16T03:48:01.513Z,72.34
2022-10-16T03:49:03.017Z,72.34
2022-10-16T03:50:01.891Z,72.03
2022-10-16T03:51:02.083Z,72.44
2022-10-16T03:52:02.245Z,71.94
2022-10-16T03:53:02.403Z,71.73
2022-10-16T03:54:02.576Z,72.24
2022-10-16T03:55:02.733Z,71.73
2022-10-16T03:56:02.883Z,72.24
2022-10-16T03:57:03.084Z,72.34
2022-10-16T03:58:03.243Z,72.34
2022-10-16T03:59:03.423Z,72.24
2022-10-16T04:00:03.583Z,72.54
2022-10-16T04:01:03.778Z,72.14
2022-10-16T04:02:03.913Z,72.14
2022-10-16T04:03:04.069Z,72.24
2022-10-16T04:04:04.273Z,72.14
2022-10-16T04:05:04.435Z,71.94
2022-10-16T04:06:04.593Z,72.10
2022-10-16T04:07:04.751Z,72.24
2022-10-16T04:08:04.944Z,72.14
2022-10-16T04:09:05.114Z,71.83
2022-10-16T04:10:05.275Z,71.94
2022-10-16T04:11:05.436Z,72.10
2022-10-16T04:12:05.594Z,71.73
2022-10-16T04:13:05.754Z,72.14
2022-10-16T04:14:05.952Z,72.03
2022-10-16T04:15:06.093Z,72.14
2022-10-16T04:16:06.274Z,71.73
2022-10-16T04:17:06.424Z,71.83
2022-10-16T04:18:06.594Z,71.94
2022-10-16T04:19:07.218Z,71.73
2022-10-16T04:20:06.947Z,71.94
2022-10-16T04:21:07.112Z,72.14
2022-10-16T04:22:07.303Z,71.73
2022-10-16T04:23:07.457Z,71.43
2022-10-16T04:24:07.665Z,71.43
2022-10-16T04:25:07.824Z,71.43
2022-10-16T04:26:07.986Z,71.43
2022-10-16T04:27:08.145Z,71.33
2022-10-16T04:28:08.305Z,71.53
2022-10-16T04:29:08.476Z,71.33
2022-10-16T04:30:08.645Z,71.63
2022-10-16T04:31:08.806Z,71.23
2022-10-16T04:32:08.967Z,71.63
2022-10-16T04:33:09.133Z,71.63
2022-10-16T04:34:09.305Z,71.63
2022-10-16T04:35:09.457Z,71.53
2022-10-16T04:36:09.617Z,71.13
2022-10-16T04:37:09.777Z,71.94
2022-10-16T04:38:09.967Z,72.64
2022-10-16T04:39:10.144Z,72.57
2022-10-16T04:40:10.305Z,72.97
2022-10-16T04:41:10.465Z,72.07
2022-10-16T04:42:10.627Z,72.47
2022-10-16T04:43:10.784Z,72.37
2022-10-16T04:44:10.966Z,72.07
2022-10-16T04:45:13.491Z,72.07
2022-10-16T04:46:12.306Z,72.27
2022-10-16T04:47:11.487Z,72.17
2022-10-16T04:48:11.676Z,71.97
2022-10-16T04:49:11.846Z,72.07
2022-10-16T04:50:12.015Z,71.87
2022-10-16T04:51:12.165Z,72.07
2022-10-16T04:52:12.351Z,71.97
2022-10-16T04:53:12.497Z,71.97
2022-10-16T04:54:12.707Z,72.07
2022-10-16T04:55:12.866Z,72.07
2022-10-16T04:56:13.057Z,71.97
2022-10-16T04:57:13.207Z,72.67
2022-10-16T04:58:13.437Z,72.77
2022-10-16T04:59:13.566Z,72.07
2022-10-16T05:00:13.758Z,72.37
2022-10-16T05:01:13.907Z,71.97
2022-10-16T05:02:14.069Z,71.97
2022-10-16T05:03:14.298Z,71.97
2022-10-16T05:04:14.410Z,71.87
2022-10-16T05:05:14.559Z,72.47
2022-10-16T05:06:14.756Z,72.17
2022-10-16T05:07:14.917Z,72.17
2022-10-16T05:08:15.098Z,72.07
2022-10-16T05:09:15.258Z,72.27
2022-10-16T05:10:15.432Z,71.77
2022-10-16T05:11:15.576Z,71.87
2022-10-16T05:12:15.744Z,71.97
2022-10-16T05:13:15.917Z,71.87
2022-10-16T05:14:16.083Z,71.97
2022-10-16T05:15:16.237Z,72.37
2022-10-16T05:16:16.409Z,71.97
2022-10-16T05:17:16.596Z,71.97
2022-10-16T05:18:16.769Z,71.77
2022-10-16T05:19:32.393Z,72.27
2022-10-16T05:20:18.117Z,72.27
2022-10-16T05:21:17.290Z,72.27
2022-10-16T05:22:17.469Z,72.27
2022-10-16T05:23:17.651Z,72.07
2022-10-16T05:24:17.835Z,71.87
2022-10-16T05:25:18.007Z,72.17
2022-10-16T05:26:18.188Z,71.97
2022-10-16T05:27:18.371Z,71.87
2022-10-16T05:28:18.632Z,72.07
2022-10-16T05:29:18.717Z,71.97
2022-10-16T05:30:18.897Z,72.07
2022-10-16T05:31:19.078Z,72.07
2022-10-16T05:32:19.259Z,71.97
2022-10-16T05:33:19.471Z,72.11
2022-10-16T05:34:19.639Z,72.00
2022-10-16T05:35:19.798Z,72.20
2022-10-16T05:36:19.987Z,71.91
2022-10-16T05:37:20.138Z,71.91
2022-10-16T05:38:20.329Z,71.91
2022-10-16T05:39:20.518Z,72.11
2022-10-16T05:40:20.688Z,72.31
2022-10-16T05:41:20.828Z,71.91
2022-10-16T05:42:21.008Z,72.00
2022-10-16T05:43:21.228Z,72.00
2022-10-16T05:44:21.426Z,72.00
2022-10-16T05:45:21.541Z,72.31
2022-10-16T05:46:21.739Z,72.20
2022-10-16T05:47:21.879Z,72.20
2022-10-16T05:48:22.088Z,72.20
2022-10-16T05:49:22.230Z,72.20
2022-10-16T05:50:22.415Z,72.20
2022-10-16T05:51:22.598Z,72.11
2022-10-16T05:52:22.778Z,72.81
2022-10-16T05:53:22.979Z,72.37
2022-10-16T05:54:23.162Z,72.07
2022-10-16T05:55:23.348Z,71.97
2022-10-16T05:56:23.520Z,71.97
2022-10-16T05:57:23.808Z,71.87
2022-10-16T05:58:23.889Z,71.77
2022-10-16T05:59:24.059Z,71.87
2022-10-16T06:00:24.237Z,72.27
2022-10-16T06:01:24.484Z,72.07
2022-10-16T06:02:24.590Z,71.87
2022-10-16T06:03:24.789Z,72.17
2022-10-16T06:04:24.959Z,72.07
2022-10-16T06:05:25.109Z,72.07
2022-10-16T06:06:25.289Z,72.47
2022-10-16T06:07:25.823Z,72.07
2022-10-16T06:08:25.653Z,72.17
2022-10-16T06:09:25.790Z,72.17
2022-10-16T06:10:25.960Z,72.27
2022-10-16T06:11:26.149Z,72.14
2022-10-16T06:12:26.340Z,71.83
2022-10-16T06:13:26.512Z,72.14
2022-10-16T06:14:26.692Z,71.94
2022-10-16T06:15:26.840Z,71.94
2022-10-16T06:16:27.018Z,72.03
2022-10-16T06:17:27.599Z,71.94
2022-10-16T06:18:27.401Z,72.14
2022-10-16T06:19:27.540Z,72.03
2022-10-16T06:20:27.728Z,72.03
2022-10-16T06:21:27.898Z,72.14
2022-10-16T06:22:28.090Z,72.03
2022-10-16T06:23:28.258Z,72.14
2022-10-16T06:24:28.430Z,72.14
2022-10-16T06:25:28.611Z,72.03
2022-10-16T06:26:28.791Z,71.83
2022-10-16T06:27:29.244Z,71.83
2022-10-16T06:28:29.210Z,72.03
2022-10-16T06:29:29.321Z,71.90
2022-10-16T06:30:29.502Z,71.80
2022-10-16T06:31:29.681Z,71.70
2022-10-16T06:32:29.864Z,71.80
2022-10-16T06:33:30.061Z,71.70
2022-10-16T06:34:30.241Z,71.70
2022-10-16T06:35:30.429Z,71.80
2022-10-16T06:36:30.612Z,71.80
2022-10-16T06:37:30.761Z,71.50
2022-10-16T06:38:30.952Z,71.70
2022-10-16T06:39:31.111Z,71.60
2022-10-16T06:40:31.282Z,71.40
2022-10-16T06:41:31.440Z,71.40
2022-10-16T06:42:31.625Z,71.30
2022-10-16T06:43:31.821Z,71.36
2022-10-16T06:44:31.991Z,71.26
2022-10-16T06:45:32.171Z,71.26
2022-10-16T06:46:32.360Z,71.06
2022-10-16T06:47:32.532Z,71.06
2022-10-16T06:48:32.754Z,71.06
2022-10-16T06:49:32.882Z,70.86
2022-10-16T06:50:33.073Z,70.96
2022-10-16T06:51:33.252Z,70.86
2022-10-16T06:52:33.452Z,70.86
2022-10-16T06:53:39.461Z,70.83
2022-10-16T06:54:42.051Z,70.63
2022-10-16T06:55:34.973Z,70.63
2022-10-16T06:56:34.166Z,70.43
2022-10-16T06:57:34.342Z,70.23
2022-10-16T06:58:34.533Z,70.23
2022-10-16T06:59:34.684Z,70.09
2022-10-16T07:00:34.863Z,69.89
2022-10-16T07:01:35.042Z,69.66
2022-10-16T07:02:35.221Z,69.56
2022-10-16T07:03:35.413Z,69.46
2022-10-16T07:04:35.580Z,69.22
2022-10-16T07:05:35.742Z,69.02
2022-10-16T07:06:35.923Z,68.82
2022-10-16T07:07:36.107Z,68.69
2022-10-16T07:08:36.307Z,67.99
2022-10-16T07:09:36.523Z,67.96
2022-10-16T07:10:36.636Z,67.65
2022-10-16T07:11:36.805Z,67.45
2022-10-16T07:12:36.991Z,66.85
2022-10-16T07:13:37.174Z,66.75
2022-10-16T07:14:37.354Z,66.82
2022-10-16T07:15:37.534Z,66.52
2022-10-16T07:16:37.722Z,66.42
2022-10-16T07:17:37.896Z,66.52
2022-10-16T07:18:38.085Z,66.12
2022-10-16T07:19:38.235Z,66.19
2022-10-16T07:20:38.404Z,66.28
2022-10-16T07:21:38.587Z,65.59
2022-10-16T07:22:38.776Z,65.59
2022-10-16T07:23:38.945Z,65.28
2022-10-16T07:24:39.095Z,65.86
2022-10-16T07:25:39.276Z,66.36
2022-10-16T07:26:39.454Z,66.46
2022-10-16T07:27:39.643Z,66.55
2022-10-16T07:28:39.918Z,65.95
2022-10-16T07:29:39.976Z,66.36
2022-10-16T07:30:40.164Z,66.25
2022-10-16T07:31:40.363Z,65.55
2022-10-16T07:32:40.548Z,65.66
2022-10-16T07:33:40.715Z,65.95
2022-10-16T07:34:40.875Z,66.05
2022-10-16T07:35:41.016Z,65.05
2022-10-16T07:37:41.366Z,65.36
2022-10-16T07:38:41.553Z,65.45
2022-10-16T07:39:41.732Z,65.55
2022-10-16T07:40:41.930Z,65.36
2022-10-16T07:41:42.087Z,65.66
2022-10-16T07:42:42.274Z,65.45
2022-10-16T07:43:42.471Z,65.55
2022-10-16T07:44:42.606Z,65.36
2022-10-16T07:45:42.826Z,65.05
2022-10-16T07:46:42.958Z,65.45
2022-10-16T07:47:43.135Z,65.66
2022-10-16T07:48:43.343Z,65.75
2022-10-16T07:49:43.506Z,65.95
2022-10-16T07:50:43.686Z,65.95
2022-10-16T07:51:43.887Z,65.95
2022-10-16T07:52:44.058Z,66.05
2022-10-16T07:53:44.249Z,66.16
2022-10-16T07:54:44.445Z,66.05
2022-10-16T07:55:44.571Z,65.95
2022-10-16T07:56:44.749Z,65.86
2022-10-16T07:57:44.927Z,66.05
2022-10-16T07:58:45.117Z,66.22
2022-10-16T07:59:45.310Z,66.22
2022-10-16T08:00:45.486Z,65.92
2022-10-16T08:01:45.704Z,65.83
2022-10-16T08:02:45.857Z,66.09
2022-10-16T08:03:46.050Z,65.79
2022-10-16T08:04:46.198Z,65.59
2022-10-16T08:05:46.378Z,65.09
2022-10-16T08:06:46.574Z,64.69
2022-10-16T08:07:46.749Z,64.76
2022-10-16T08:08:46.949Z,64.66
2022-10-16T08:09:47.110Z,64.26
2022-10-16T08:10:47.327Z,64.23
2022-10-16T08:11:47.458Z,64.33
2022-10-16T08:12:47.638Z,63.53
2022-10-16T08:13:47.828Z,63.73
2022-10-16T08:14:47.969Z,63.03
2022-10-16T08:15:48.149Z,63.20
2022-10-16T08:16:48.329Z,63.30
2022-10-16T08:17:48.508Z,62.60
2022-10-16T08:18:48.718Z,62.70
2022-10-16T08:19:48.882Z,62.57
2022-10-16T08:20:49.049Z,62.18
2022-10-16T08:21:49.229Z,62.18
2022-10-16T08:22:49.399Z,62.18
2022-10-16T08:23:53.103Z,62.07
2022-10-16T08:24:50.742Z,61.87
2022-10-16T08:25:49.920Z,61.47
2022-10-16T08:26:50.100Z,61.68
2022-10-16T08:27:50.289Z,61.87
2022-10-16T08:28:50.531Z,61.57
2022-10-16T08:29:50.640Z,61.85
2022-10-16T08:30:50.821Z,61.55
2022-10-16T08:31:51.012Z,61.44
2022-10-16T08:32:51.190Z,61.18
2022-10-16T08:33:51.389Z,61.27
2022-10-16T08:34:51.550Z,61.87
2022-10-16T08:35:51.741Z,61.87
2022-10-16T08:36:51.882Z,61.98
2022-10-16T08:37:52.072Z,61.98
2022-10-16T08:38:52.221Z,62.48
2022-10-16T08:39:52.401Z,61.98
2022-10-16T08:40:53.752Z,61.68
2022-10-16T08:41:52.761Z,62.07
2022-10-16T08:42:52.939Z,61.85
2022-10-16T08:43:53.131Z,61.74
2022-10-16T08:44:53.301Z,61.85
2022-10-16T08:45:53.482Z,61.65
2022-10-16T08:46:53.662Z,61.65
2022-10-16T08:47:53.842Z,60.65
2022-10-16T08:48:54.040Z,60.35
2022-10-16T08:49:54.202Z,60.35
2022-10-16T08:50:54.383Z,60.62
2022-10-16T08:51:54.562Z,60.72
2022-10-16T08:52:54.733Z,60.02
2022-10-16T08:53:54.942Z,59.82
2022-10-16T08:54:55.085Z,59.72
2022-10-16T08:55:55.263Z,59.49
2022-10-16T08:56:55.435Z,59.86
2022-10-16T08:57:55.601Z,58.81
2022-10-16T08:58:59.892Z,57.66
2022-10-16T08:59:56.933Z,56.71
2022-10-16T09:00:56.153Z,55.99
2022-10-16T09:01:56.283Z,55.19
2022-10-16T09:02:56.442Z,55.69
2022-10-16T09:03:56.616Z,55.69
2022-10-16T09:04:57.014Z,55.29
2022-10-16T09:05:56.936Z,55.19
2022-10-16T09:06:57.104Z,54.60
2022-10-16T09:07:57.335Z,54.28
2022-10-16T09:08:57.475Z,53.78
2022-10-16T09:09:57.644Z,53.13
2022-10-16T09:10:57.812Z,52.02
2022-10-16T09:11:57.974Z,51.60
2022-10-16T09:12:58.134Z,50.88
2022-10-16T09:13:58.335Z,50.58
2022-10-16T09:14:58.477Z,50.38
2022-10-16T09:15:58.645Z,50.41
2022-10-16T09:16:58.912Z,51.00
2022-10-16T09:17:59.001Z,50.51
2022-10-16T09:18:59.186Z,49.35
2022-10-16T09:19:59.355Z,49.13
2022-10-16T09:20:59.516Z,48.73
2022-10-16T09:21:59.706Z,49.22
2022-10-16T09:22:59.875Z,49.37
2022-10-16T09:24:00.088Z,47.72
2022-10-16T09:25:00.238Z,46.52
2022-10-16T09:26:00.441Z,46.03
2022-10-16T09:27:00.617Z,46.86
2022-10-16T09:28:00.778Z,47.18
2022-10-16T09:29:01.031Z,47.60
2022-10-16T09:30:01.128Z,47.64
2022-10-16T09:31:01.318Z,48.33
2022-10-16T09:32:01.498Z,49.13
2022-10-16T09:33:01.668Z,49.79
2022-10-16T09:34:01.850Z,49.27
2022-10-16T09:35:02.019Z,47.28
2022-10-16T09:36:02.208Z,47.47
2022-10-16T09:37:02.389Z,47.28
2022-10-16T09:38:02.549Z,47.08
2022-10-16T09:39:02.730Z,46.91
2022-10-16T09:40:05.325Z,47.13
2022-10-16T09:41:03.568Z,47.64
2022-10-16T09:42:03.219Z,48.55
2022-10-16T09:43:03.349Z,48.77
2022-10-16T09:44:03.554Z,49.27
2022-10-16T09:45:03.708Z,50.09
2022-10-16T09:46:03.879Z,50.01
2022-10-16T09:47:04.050Z,50.51
2022-10-16T09:48:04.231Z,50.31
2022-10-16T09:49:04.433Z,50.73
2022-10-16T09:50:04.598Z,50.73
2022-10-16T09:51:04.780Z,51.42
2022-10-16T09:52:04.961Z,51.23
2022-10-16T09:53:05.131Z,51.12
2022-10-16T09:54:05.352Z,51.23
2022-10-16T09:55:05.491Z,50.85
2022-10-16T09:56:09.147Z,50.88
2022-10-16T09:57:06.852Z,51.40
2022-10-16T09:58:06.044Z,51.89
2022-10-16T09:59:06.234Z,51.92
2022-10-16T10:00:06.402Z,52.51
2022-10-16T10:01:06.562Z,52.42
2022-10-16T10:02:06.744Z,52.98
2022-10-16T10:03:06.905Z,52.00
2022-10-16T10:04:07.090Z,52.00
2022-10-16T10:05:07.255Z,52.07
2022-10-16T10:06:07.530Z,50.98
2022-10-16T10:07:07.577Z,50.78
2022-10-16T10:08:07.743Z,51.07
2022-10-16T10:09:07.935Z,51.47
2022-10-16T10:10:08.074Z,51.47
2022-10-16T10:11:10.621Z,51.45
2022-10-16T10:12:09.445Z,51.25
2022-10-16T10:13:08.595Z,51.45
2022-10-16T10:14:08.795Z,51.15
2022-10-16T10:15:08.983Z,51.54
2022-10-16T10:16:09.173Z,50.95
2022-10-16T10:17:09.335Z,51.05
2022-10-16T10:18:09.525Z,51.35
2022-10-16T10:19:09.777Z,51.15
2022-10-16T10:20:09.876Z,50.65
2022-10-16T10:21:10.056Z,51.05
2022-10-16T10:22:10.280Z,51.15
2022-10-16T10:23:10.426Z,51.18
2022-10-16T10:24:10.598Z,50.88
2022-10-16T10:25:10.779Z,50.68
2022-10-16T10:26:10.906Z,50.78
2022-10-16T10:27:11.066Z,50.78
2022-10-16T10:28:11.217Z,50.58
2022-10-16T10:29:11.437Z,50.78
2022-10-16T10:30:11.618Z,50.88
2022-10-16T10:31:11.751Z,50.48
2022-10-16T10:32:11.927Z,50.78
2022-10-16T10:33:12.107Z,50.76
2022-10-16T10:34:12.300Z,51.15
2022-10-16T10:35:12.467Z,50.56
2022-10-16T10:36:12.649Z,49.96
2022-10-16T10:37:12.819Z,50.58
2022-10-16T10:38:13.018Z,50.28
2022-10-16T10:39:13.214Z,50.48
2022-10-16T10:40:13.347Z,50.58
2022-10-16T10:41:13.518Z,50.38
2022-10-16T10:42:13.721Z,50.78
2022-10-16T10:43:13.849Z,50.78
2022-10-16T10:44:14.087Z,50.58
2022-10-16T10:45:14.189Z,50.88
2022-10-16T10:46:14.378Z,51.37
2022-10-16T10:47:14.559Z,50.58
2022-10-16T10:48:14.797Z,50.48
2022-10-16T10:49:14.920Z,50.78
2022-10-16T10:50:15.196Z,50.18
2022-10-16T10:51:15.241Z,50.09
2022-10-16T10:52:15.421Z,50.09
2022-10-16T10:53:15.594Z,50.18
2022-10-16T10:54:15.800Z,50.18
2022-10-16T10:55:15.931Z,49.61
2022-10-16T10:56:16.110Z,49.61
2022-10-16T10:57:16.290Z,50.11
2022-10-16T10:58:16.470Z,50.48
2022-10-16T10:59:16.672Z,50.78
2022-10-16T11:00:16.845Z,50.88
2022-10-16T11:01:17.065Z,50.16
2022-10-16T11:02:17.291Z,50.56
2022-10-16T11:03:17.351Z,49.86
2022-10-16T11:04:17.585Z,50.06
2022-10-16T11:05:17.682Z,49.34
2022-10-16T11:06:17.862Z,48.87
2022-10-16T11:07:18.042Z,48.85
2022-10-16T11:08:18.221Z,48.25
2022-10-16T11:09:18.412Z,47.36
2022-10-16T11:10:18.582Z,47.46
2022-10-16T11:11:18.763Z,47.26
2022-10-16T11:12:18.946Z,47.06
2022-10-16T11:13:19.125Z,47.06
2022-10-16T11:14:19.322Z,46.77
2022-10-16T11:15:19.485Z,46.27
2022-10-16T11:16:21.546Z,47.26
2022-10-16T11:17:19.826Z,46.69
2022-10-16T11:18:20.012Z,47.28
2022-10-16T11:19:20.195Z,47.56
2022-10-16T11:20:20.335Z,47.58
2022-10-16T11:21:20.514Z,47.56
2022-10-16T11:22:20.695Z,46.09
2022-10-16T11:23:20.889Z,46.09
2022-10-16T11:24:21.074Z,46.30
2022-10-16T11:25:21.235Z,46.98
2022-10-16T11:26:21.418Z,46.22
2022-10-16T11:27:21.595Z,46.51
2022-10-16T11:28:21.935Z,46.31
2022-10-16T11:29:21.945Z,45.82
2022-10-16T11:30:22.137Z,46.81
2022-10-16T11:31:22.306Z,46.12
2022-10-16T11:32:22.495Z,46.51
2022-10-16T11:33:22.697Z,47.03
2022-10-16T11:34:22.849Z,47.03
2022-10-16T11:35:23.017Z,46.73
2022-10-16T11:36:23.208Z,47.53
2022-10-16T11:37:23.389Z,46.86
2022-10-16T11:38:23.618Z,47.05
2022-10-16T11:39:23.758Z,47.25
2022-10-16T11:40:23.927Z,46.76
2022-10-16T11:41:24.107Z,47.35
2022-10-16T11:42:24.267Z,47.47
2022-10-16T11:43:24.447Z,47.47
2022-10-16T11:44:24.652Z,47.38
2022-10-16T11:45:24.798Z,47.87
2022-10-16T11:46:24.978Z,47.80
2022-10-16T11:47:46.743Z,47.99
2022-10-16T11:48:26.373Z,48.49
2022-10-16T11:49:25.529Z,48.39
2022-10-16T11:50:25.698Z,48.59
2022-10-16T11:51:25.892Z,48.59
2022-10-16T11:52:26.072Z,48.91
2022-10-16T11:53:26.262Z,49.11
2022-10-16T11:54:26.439Z,49.01
2022-10-16T11:55:26.639Z,48.52
2022-10-16T11:56:26.809Z,49.01
2022-10-16T11:57:27.313Z,49.11
2022-10-16T11:58:27.179Z,49.31
2022-10-16T11:59:27.349Z,49.01
2022-10-16T12:00:27.520Z,49.51
2022-10-16T12:01:27.705Z,49.21
2022-10-16T12:02:28.178Z,49.31
2022-10-16T12:03:28.104Z,49.04
2022-10-16T12:04:28.242Z,49.04
2022-10-16T12:05:28.421Z,49.33
2022-10-16T12:06:28.601Z,49.13
2022-10-16T12:07:28.780Z,48.94
2022-10-16T12:08:28.983Z,49.23
2022-10-16T12:09:29.138Z,49.13
2022-10-16T12:10:29.337Z,49.36
2022-10-16T12:11:29.476Z,50.05
2022-10-16T12:12:31.735Z,49.46
2022-10-16T12:13:29.823Z,49.55
2022-10-16T12:14:29.982Z,49.46
2022-10-16T12:15:47.403Z,49.85
2022-10-16T12:16:31.352Z,49.76
2022-10-16T12:17:30.552Z,50.27
2022-10-16T12:18:30.722Z,50.45
2022-10-16T12:19:30.902Z,50.18
2022-10-16T12:20:31.083Z,50.45
2022-10-16T12:21:31.280Z,50.08
2022-10-16T12:22:31.463Z,50.45
2022-10-16T12:23:31.625Z,50.48
2022-10-16T12:24:31.792Z,50.27
2022-10-16T12:25:31.963Z,50.25
2022-10-16T12:26:32.156Z,50.15
2022-10-16T12:27:32.335Z,50.65
2022-10-16T12:28:32.613Z,50.35
2022-10-16T12:29:32.677Z,50.15
2022-10-16T12:30:35.712Z,50.05
2022-10-16T12:31:33.025Z,50.85
2022-10-16T12:32:48.841Z,50.15
2022-10-16T12:33:34.397Z,50.45
2022-10-16T12:34:33.536Z,50.05
2022-10-16T12:35:33.724Z,49.55
2022-10-16T12:36:33.897Z,50.05
2022-10-16T12:37:34.115Z,49.76
2022-10-16T12:38:34.244Z,49.85
2022-10-16T12:39:34.450Z,49.66
2022-10-16T12:40:34.614Z,49.76
2022-10-16T12:41:34.808Z,49.66
2022-10-16T12:42:34.998Z,49.66
2022-10-16T12:43:35.126Z,49.66
2022-10-16T12:44:35.335Z,49.63
2022-10-16T12:45:35.466Z,49.16
2022-10-16T12:46:35.635Z,49.26
2022-10-16T12:47:35.836Z,49.16
2022-10-16T12:48:49.088Z,49.16
2022-10-16T12:49:37.229Z,49.46
2022-10-16T12:50:36.380Z,49.26
2022-10-16T12:51:36.568Z,49.46
2022-10-16T12:52:36.715Z,49.26
2022-10-16T12:53:36.888Z,49.26
2022-10-16T12:54:37.075Z,49.66
2022-10-16T12:55:37.237Z,49.66